Time;durP1;ratioP1;P1;durP2;ratioP2;P2;SDS_P1;SDS_P2;PMS_P1;PMS_P2;Temp;Humidity;BMP_temperature;BMP_pressure;BME280_temperature;BME280_humidity;BME280_pressure;Samples;Min_cycle;Max_cycle;Signal;HPM_P1;HPM_P2
2021/11/08 00:01:19;;;;;;;72.77;36.50;;;;;;;;;;4425492;32;20236;-56
2021/11/08 00:03:47;;;;;;;55.07;30.60;;;;;;;;;;4434448;32;20358;-56
2021/11/08 00:06:16;;;;;;;50.47;27.77;;;;;;;;;;4424269;32;20260;-56
2021/11/08 00:08:42;;;;;;;45.93;26.77;;;;;;;;;;4418586;32;20222;-55
2021/11/08 00:11:08;;;;;;;54.83;26.47;;;;;;;;;;4418321;32;20221;-57
2021/11/08 00:13:36;;;;;;;45.47;25.00;;;;;;;;;;4418599;32;20294;-58
2021/11/08 00:18:40;;;;;;;45.77;25.07;;;;;;;;;;4418230;32;20259;-56
2021/11/08 00:21:07;;;;;;;36.73;23.30;;;;;;;;;;4418201;32;20541;-56
2021/11/08 00:23:33;;;;;;;49.20;24.13;;;;;;;;;;4419565;32;20320;-55
2021/11/08 00:25:58;;;;;;;42.77;21.40;;;;;;;;;;4433215;32;20287;-56
2021/11/08 00:28:25;;;;;;;50.60;22.80;;;;;;;;;;4433842;32;20673;-58
2021/11/08 00:30:52;;;;;;;47.13;28.50;;;;;;;;;;4433923;32;20364;-56
2021/11/08 00:33:19;;;;;;;58.80;32.83;;;;;;;;;;4433429;32;20789;-56
2021/11/08 00:35:56;;;;;;;46.63;28.43;;;;;;;;;;4433492;32;20344;-56
2021/11/08 00:38:22;;;;;;;41.50;29.77;;;;;;;;;;4433595;32;20511;-56
2021/11/08 00:40:48;;;;;;;54.47;28.07;;;;;;;;;;4433497;32;20302;-56
2021/11/08 00:43:15;;;;;;;41.93;22.50;;;;;;;;;;4433312;32;20280;-56
2021/11/08 00:45:41;;;;;;;37.63;22.60;;;;;;;;;;4433801;32;20224;-56
2021/11/08 00:48:07;;;;;;;48.93;24.80;;;;;;;;;;4433285;32;20235;-55
2021/11/08 00:50:33;;;;;;;46.20;23.97;;;;;;;;;;4431522;32;20303;-55
2021/11/08 00:53:00;;;;;;;49.00;26.83;;;;;;;;;;4433145;32;20363;-56
2021/11/08 00:55:26;;;;;;;42.77;24.43;;;;;;;;;;4433467;32;20616;-56
2021/11/08 00:57:56;;;;;;;40.13;24.50;;;;;;;;;;4433916;32;20213;-54
2021/11/08 01:00:26;;;;;;;49.00;24.03;;;;;;;;;;4433138;32;20228;-55
2021/11/08 01:02:51;;;;;;;48.50;25.53;;;;;;;;;;4433585;32;20255;-55
2021/11/08 01:05:17;;;;;;;45.30;23.93;;;;;;;;;;4430263;32;20296;-55
2021/11/08 01:07:43;;;;;;;47.73;24.47;;;;;;;;;;4417748;32;20243;-56
2021/11/08 01:10:12;;;;;;;53.63;25.53;;;;;;;;;;4417611;32;20705;-56
2021/11/08 01:12:37;;;;;;;53.77;24.73;;;;;;;;;;4416379;32;20672;-56
2021/11/08 01:15:04;;;;;;;49.20;26.93;;;;;;;;;;4417335;32;20304;-56
2021/11/08 01:17:30;;;;;;;59.77;28.67;;;;;;;;;;4433227;32;20216;-57
2021/11/08 01:19:55;;;;;;;54.57;30.83;;;;;;;;;;4432802;32;20776;-56
2021/11/08 01:22:22;;;;;;;55.87;30.20;;;;;;;;;;4433412;32;20216;-55
2021/11/08 01:24:54;;;;;;;67.60;33.53;;;;;;;;;;4432764;32;20244;-57
2021/11/08 01:27:42;;;;;;;65.73;34.53;;;;;;;;;;4431833;32;20598;-55
2021/11/08 01:30:14;;;;;;;68.10;36.00;;;;;;;;;;4417940;32;20480;-55
2021/11/08 01:32:40;;;;;;;64.47;37.70;;;;;;;;;;4427619;32;20225;-55
2021/11/08 01:35:07;;;;;;;68.63;36.60;;;;;;;;;;4432896;32;20208;-55
2021/11/08 01:37:32;;;;;;;72.70;37.07;;;;;;;;;;4432032;32;20239;-55
2021/11/08 01:39:58;;;;;;;71.77;37.47;;;;;;;;;;4432517;32;20296;-57
2021/11/08 01:42:25;;;;;;;66.23;34.90;;;;;;;;;;4433383;32;20266;-55
2021/11/08 01:44:50;;;;;;;62.97;35.30;;;;;;;;;;4432904;32;20314;-56
2021/11/08 01:47:16;;;;;;;58.23;34.17;;;;;;;;;;4433168;32;20609;-56
2021/11/08 01:49:41;;;;;;;64.70;34.07;;;;;;;;;;4431298;32;20616;-57
2021/11/08 01:52:09;;;;;;;62.43;30.23;;;;;;;;;;4432769;32;20269;-57
2021/11/08 01:54:38;;;;;;;59.00;32.50;;;;;;;;;;4432737;32;20328;-55
2021/11/08 01:57:04;;;;;;;56.43;28.27;;;;;;;;;;4433064;32;20330;-56
2021/11/08 01:59:32;;;;;;;51.10;28.77;;;;;;;;;;4432552;32;20264;-55
2021/11/08 02:01:58;;;;;;;61.00;29.20;;;;;;;;;;4433100;32;20259;-55
2021/11/08 02:04:24;;;;;;;51.63;28.97;;;;;;;;;;4435997;32;20364;-56
2021/11/08 02:06:50;;;;;;;60.33;30.47;;;;;;;;;;4422166;32;20650;-56
2021/11/08 02:09:15;;;;;;;57.97;28.30;;;;;;;;;;4419951;32;20220;-56
2021/11/08 02:11:42;;;;;;;50.40;27.67;;;;;;;;;;4420335;32;20285;-55
2021/11/08 02:14:08;;;;;;;58.80;28.30;;;;;;;;;;4420548;32;20679;-55
2021/11/08 02:16:35;;;;;;;43.30;28.70;;;;;;;;;;4430541;32;20296;-57
2021/11/08 02:19:02;;;;;;;59.37;29.23;;;;;;;;;;4435116;32;20250;-56
2021/11/08 02:21:29;;;;;;;49.53;28.00;;;;;;;;;;4435300;32;20255;-56
2021/11/08 02:23:57;;;;;;;58.13;29.23;;;;;;;;;;4435027;32;20642;-55
2021/11/08 02:26:23;;;;;;;43.77;24.90;;;;;;;;;;4435477;32;20319;-56
2021/11/08 02:28:52;;;;;;;41.83;25.20;;;;;;;;;;4434975;32;20411;-57
2021/11/08 02:31:22;;;;;;;48.20;26.13;;;;;;;;;;4435213;32;20264;-55
2021/11/08 02:33:50;;;;;;;50.73;26.83;;;;;;;;;;4435281;32;20337;-55
2021/11/08 02:36:16;;;;;;;46.30;27.27;;;;;;;;;;4434819;32;20233;-56
2021/11/08 02:38:48;;;;;;;44.80;26.67;;;;;;;;;;4433853;32;20220;-56
2021/11/08 02:41:14;;;;;;;46.33;25.57;;;;;;;;;;4435172;32;20756;-55
2021/11/08 02:43:40;;;;;;;46.80;25.57;;;;;;;;;;4435125;32;20240;-56
2021/11/08 02:46:10;;;;;;;45.23;25.07;;;;;;;;;;4435162;32;20289;-55
2021/11/08 02:48:37;;;;;;;50.17;23.60;;;;;;;;;;4433753;32;20268;-55
2021/11/08 02:51:19;;;;;;;52.93;25.43;;;;;;;;;;4435177;32;20365;-55
2021/11/08 02:53:47;;;;;;;43.57;25.00;;;;;;;;;;4435189;32;20294;-56
2021/11/08 02:56:13;;;;;;;43.23;23.73;;;;;;;;;;4434993;32;20228;-54
2021/11/08 02:58:42;;;;;;;47.70;25.97;;;;;;;;;;4434687;32;20261;-56
2021/11/08 03:01:10;;;;;;;45.03;22.53;;;;;;;;;;4428560;32;20216;-56
2021/11/08 03:03:41;;;;;;;33.23;19.23;;;;;;;;;;4419660;32;20236;-56
2021/11/08 03:06:21;;;;;;;37.70;19.37;;;;;;;;;;4426875;32;20259;-56
2021/11/08 03:08:48;;;;;;;33.40;19.67;;;;;;;;;;4433193;32;20235;-56
2021/11/08 03:11:14;;;;;;;38.77;18.97;;;;;;;;;;4434517;32;20326;-57
2021/11/08 03:13:45;;;;;;;37.27;20.60;;;;;;;;;;4434244;32;20337;-57
2021/11/08 03:16:22;;;;;;;48.00;21.07;;;;;;;;;;4434446;32;20753;-55
2021/11/08 03:18:54;;;;;;;36.03;20.97;;;;;;;;;;4434718;32;20219;-56
2021/11/08 03:21:21;;;;;;;42.03;20.73;;;;;;;;;;4434048;32;20248;-55
2021/11/08 03:23:49;;;;;;;36.57;20.77;;;;;;;;;;4432929;32;20284;-56
2021/11/08 03:26:38;;;;;;;27.23;17.80;;;;;;;;;;4433164;32;20225;-55
2021/11/08 03:29:04;;;;;;;38.37;17.30;;;;;;;;;;4433984;32;20223;-55
2021/11/08 03:31:30;;;;;;;29.60;19.47;;;;;;;;;;4433951;32;20232;-55
2021/11/08 03:33:56;;;;;;;31.53;18.67;;;;;;;;;;4433908;32;20348;-56
2021/11/08 03:36:22;;;;;;;31.47;18.97;;;;;;;;;;4432942;32;20259;-56
2021/11/08 03:38:48;;;;;;;33.70;19.63;;;;;;;;;;4433941;32;20375;-57
2021/11/08 03:41:14;;;;;;;33.37;19.33;;;;;;;;;;4434002;32;20747;-56
2021/11/08 03:43:39;;;;;;;31.40;17.37;;;;;;;;;;4434294;32;20640;-58
2021/11/08 03:46:05;;;;;;;40.67;19.50;;;;;;;;;;4434168;32;20320;-56
2021/11/08 03:48:31;;;;;;;30.93;20.20;;;;;;;;;;4434417;32;20284;-57
2021/11/08 03:50:57;;;;;;;41.17;21.60;;;;;;;;;;4433920;32;20338;-55
2021/11/08 03:53:23;;;;;;;44.03;21.13;;;;;;;;;;4434065;32;20640;-58
2021/11/08 03:55:48;;;;;;;38.70;19.70;;;;;;;;;;4433948;32;20272;-56
2021/11/08 03:58:15;;;;;;;36.93;22.13;;;;;;;;;;4433922;32;20346;-56
2021/11/08 04:00:41;;;;;;;33.47;21.47;;;;;;;;;;4430722;32;20213;-56
2021/11/08 04:03:08;;;;;;;43.97;23.70;;;;;;;;;;4417536;32;20229;-56
2021/11/08 04:05:36;;;;;;;34.20;19.23;;;;;;;;;;4423024;32;20231;-57
2021/11/08 04:08:07;;;;;;;35.53;20.17;;;;;;;;;;4433632;32;20221;-57
2021/11/08 04:10:33;;;;;;;39.07;20.03;;;;;;;;;;4433962;32;20281;-56
2021/11/08 04:13:04;;;;;;;38.57;20.63;;;;;;;;;;4432444;32;20578;-55
2021/11/08 04:15:37;;;;;;;37.77;22.23;;;;;;;;;;4433736;32;20217;-56
2021/11/08 04:18:08;;;;;;;37.93;20.73;;;;;;;;;;4433642;32;20803;-55
2021/11/08 04:20:35;;;;;;;43.83;19.73;;;;;;;;;;4433267;32;20275;-56
2021/11/08 04:23:01;;;;;;;43.43;19.27;;;;;;;;;;4432211;32;20220;-56
2021/11/08 04:25:27;;;;;;;26.43;15.97;;;;;;;;;;4433068;32;20330;-56
2021/11/08 04:27:53;;;;;;;34.50;15.70;;;;;;;;;;4433686;32;20236;-56
2021/11/08 04:30:19;;;;;;;29.57;16.80;;;;;;;;;;4433541;32;20407;-55
2021/11/08 04:35:15;;;;;;;40.47;21.00;;;;;;;;;;4433126;32;20730;-55
2021/11/08 04:43:06;;;;;;;41.07;23.27;;;;;;;;;;4433821;32;20244;-55
2021/11/08 04:45:50;;;;;;;51.93;24.20;;;;;;;;;;4433238;32;20190;-56
2021/11/08 05:31:03;;;;;;;37.17;19.67;;;;;;;;;;4432509;32;20282;-56
2021/11/08 05:33:29;;;;;;;49.23;25.90;;;;;;;;;;4432854;32;20271;-57
2021/11/08 05:35:54;;;;;;;45.00;23.03;;;;;;;;;;4432757;32;20368;-55
2021/11/08 05:38:20;;;;;;;41.40;23.40;;;;;;;;;;4435004;32;20284;-56
2021/11/08 05:40:45;;;;;;;44.40;25.83;;;;;;;;;;4435587;32;20322;-56
2021/11/08 05:43:11;;;;;;;33.30;20.43;;;;;;;;;;4435800;32;20660;-57
2021/11/08 05:45:38;;;;;;;47.83;26.47;;;;;;;;;;4434556;32;20307;-56
2021/11/08 05:48:05;;;;;;;44.97;25.93;;;;;;;;;;4435995;32;20220;-55
2021/11/08 05:50:34;;;;;;;51.40;24.77;;;;;;;;;;4435204;32;20232;-56
2021/11/08 05:53:00;;;;;;;51.97;23.97;;;;;;;;;;4435234;32;20264;-56
2021/11/08 05:55:53;;;;;;;54.10;25.33;;;;;;;;;;4434423;32;20732;-57
2021/11/08 06:49:51;;;;;;;69.40;35.00;;;;;;;;;;4433670;32;20207;-56
2021/11/08 06:52:18;;;;;;;56.17;33.80;;;;;;;;;;4432877;32;20233;-56
2021/11/08 06:54:47;;;;;;;75.23;36.43;;;;;;;;;;4432730;32;20231;-56
2021/11/08 06:57:15;;;;;;;62.07;35.40;;;;;;;;;;4432971;32;20288;-57
2021/11/08 06:59:42;;;;;;;68.50;35.23;;;;;;;;;;4432937;32;20205;-56
2021/11/08 07:02:08;;;;;;;64.90;35.17;;;;;;;;;;4419585;32;20291;-56
2021/11/08 07:04:34;;;;;;;57.43;29.53;;;;;;;;;;4417832;32;20367;-56
2021/11/08 07:07:00;;;;;;;63.33;29.87;;;;;;;;;;4430214;32;20315;-56
2021/11/08 07:09:26;;;;;;;58.23;32.03;;;;;;;;;;4434702;32;20310;-56
2021/11/08 07:11:54;;;;;;;58.97;30.47;;;;;;;;;;4433981;32;20293;-56
2021/11/08 07:14:19;;;;;;;54.17;30.20;;;;;;;;;;4434769;32;20208;-56
2021/11/08 07:16:45;;;;;;;62.53;33.50;;;;;;;;;;4434500;32;20735;-55
2021/11/08 07:19:12;;;;;;;70.97;35.23;;;;;;;;;;4434206;32;20280;-55
2021/11/08 07:21:38;;;;;;;68.13;38.53;;;;;;;;;;4434342;32;20527;-56
2021/11/08 07:24:04;;;;;;;75.80;38.87;;;;;;;;;;4433786;32;20317;-57
2021/11/08 07:26:30;;;;;;;64.37;38.10;;;;;;;;;;4434551;32;20220;-56
2021/11/08 07:28:56;;;;;;;62.27;35.60;;;;;;;;;;4434561;32;20330;-56
2021/11/08 07:31:22;;;;;;;59.60;38.27;;;;;;;;;;4433355;32;20695;-56
2021/11/08 07:33:48;;;;;;;79.97;41.30;;;;;;;;;;4434062;32;20264;-55
2021/11/08 07:36:14;;;;;;;65.40;36.90;;;;;;;;;;4434321;32;20312;-57
2021/11/08 07:38:40;;;;;;;66.00;36.33;;;;;;;;;;4434339;32;20295;-56
2021/11/08 07:41:12;;;;;;;79.23;38.93;;;;;;;;;;4433010;32;20259;-55
2021/11/08 07:43:39;;;;;;;75.93;38.53;;;;;;;;;;4432683;32;20549;-57
2021/11/08 07:46:05;;;;;;;84.77;40.47;;;;;;;;;;4432290;32;20716;-57
2021/11/08 07:48:31;;;;;;;83.10;40.47;;;;;;;;;;4433041;32;20313;-56
2021/11/08 07:50:56;;;;;;;64.83;38.10;;;;;;;;;;4434157;32;20261;-57
2021/11/08 07:53:22;;;;;;;69.60;38.13;;;;;;;;;;4433687;32;20280;-57
2021/11/08 07:55:48;;;;;;;79.63;40.97;;;;;;;;;;4434034;32;20467;-57
2021/11/08 07:58:15;;;;;;;74.73;40.87;;;;;;;;;;4433842;32;20205;-56
2021/11/08 08:00:42;;;;;;;83.90;43.40;;;;;;;;;;4433589;32;20260;-56
2021/11/08 08:03:08;;;;;;;100.13;50.87;;;;;;;;;;4433019;32;20205;-56
2021/11/08 08:05:34;;;;;;;84.33;46.30;;;;;;;;;;4432312;32;20339;-58
2021/11/08 08:08:00;;;;;;;94.73;48.67;;;;;;;;;;4433537;32;20235;-56
2021/11/08 08:10:26;;;;;;;88.83;47.60;;;;;;;;;;4433863;32;20312;-56
2021/11/08 08:12:52;;;;;;;84.87;46.73;;;;;;;;;;4433423;32;20229;-56
2021/11/08 08:15:19;;;;;;;83.33;49.87;;;;;;;;;;4431272;32;20787;-57
2021/11/08 08:17:45;;;;;;;90.90;46.87;;;;;;;;;;4417728;32;20251;-57
2021/11/08 08:20:18;;;;;;;72.60;42.17;;;;;;;;;;4422696;32;20315;-57
2021/11/08 08:22:43;;;;;;;76.57;40.73;;;;;;;;;;4431630;32;20216;-57
2021/11/08 08:25:09;;;;;;;55.07;35.77;;;;;;;;;;4432536;32;20737;-56
2021/11/08 08:27:35;;;;;;;61.07;37.33;;;;;;;;;;4432793;32;20325;-56
2021/11/08 08:30:01;;;;;;;53.67;33.57;;;;;;;;;;4432841;32;20327;-56
2021/11/08 08:32:26;;;;;;;64.90;33.40;;;;;;;;;;4432809;32;21016;-56
2021/11/08 08:34:52;;;;;;;57.47;34.07;;;;;;;;;;4433071;32;20283;-56
2021/11/08 08:37:18;;;;;;;61.07;32.53;;;;;;;;;;4432806;32;20233;-56
2021/11/08 08:39:44;;;;;;;50.50;29.67;;;;;;;;;;4432831;32;20280;-57
2021/11/08 08:42:10;;;;;;;60.33;30.13;;;;;;;;;;4431405;32;20256;-55
2021/11/08 08:44:36;;;;;;;68.50;32.63;;;;;;;;;;4431423;32;20280;-56
2021/11/08 08:47:01;;;;;;;48.33;28.80;;;;;;;;;;4432676;32;20252;-55
2021/11/08 08:49:27;;;;;;;51.73;25.17;;;;;;;;;;4433119;32;20711;-57
2021/11/08 08:51:53;;;;;;;53.37;26.67;;;;;;;;;;4432456;32;20212;-56
2021/11/08 08:54:19;;;;;;;47.47;23.43;;;;;;;;;;4432889;32;20325;-56
2021/11/08 08:56:46;;;;;;;35.17;20.43;;;;;;;;;;4433367;32;20384;-55
2021/11/08 08:59:12;;;;;;;40.70;20.67;;;;;;;;;;4431457;32;20693;-57
2021/11/08 09:01:38;;;;;;;46.00;20.67;;;;;;;;;;4416090;32;20267;-57
2021/11/08 09:04:03;;;;;;;39.53;18.67;;;;;;;;;;4417444;32;20302;-56
2021/11/08 09:06:29;;;;;;;25.83;15.37;;;;;;;;;;4427736;32;20247;-56
2021/11/08 09:08:55;;;;;;;28.63;15.30;;;;;;;;;;4432832;32;20811;-58
2021/11/08 09:11:23;;;;;;;27.33;15.17;;;;;;;;;;4417382;32;20392;-56
2021/11/08 09:13:49;;;;;;;27.60;16.90;;;;;;;;;;4417781;32;20215;-58
2021/11/08 09:16:15;;;;;;;25.83;15.43;;;;;;;;;;4425274;32;20645;-57
2021/11/08 09:18:48;;;;;;;30.50;16.03;;;;;;;;;;4431909;32;20317;-58
2021/11/08 09:21:15;;;;;;;26.93;17.43;;;;;;;;;;4431087;32;20446;-57
2021/11/08 09:23:42;;;;;;;24.13;16.00;;;;;;;;;;4430053;32;20189;-55
2021/11/08 09:26:09;;;;;;;29.53;15.13;;;;;;;;;;4429786;32;20243;-57
2021/11/08 09:28:35;;;;;;;32.67;17.67;;;;;;;;;;4430954;32;20618;-56
2021/11/08 09:31:01;;;;;;;29.77;16.60;;;;;;;;;;4430759;32;20220;-56
2021/11/08 09:33:27;;;;;;;29.47;16.53;;;;;;;;;;4430903;32;20279;-55
2021/11/08 09:35:59;;;;;;;35.47;15.93;;;;;;;;;;4431075;32;20969;-56
2021/11/08 09:38:25;;;;;;;32.43;16.97;;;;;;;;;;4431090;32;20311;-57
2021/11/08 09:40:51;;;;;;;40.13;17.53;;;;;;;;;;4430593;32;20354;-57
2021/11/08 09:43:19;;;;;;;31.37;16.57;;;;;;;;;;4431106;32;20313;-58
2021/11/08 09:45:46;;;;;;;28.30;16.83;;;;;;;;;;4431760;32;20306;-57
2021/11/08 09:48:12;;;;;;;30.07;16.60;;;;;;;;;;4431188;32;20236;-56
2021/11/08 09:50:40;;;;;;;30.00;17.93;;;;;;;;;;4432565;32;20263;-56
2021/11/08 09:53:07;;;;;;;32.20;19.50;;;;;;;;;;4431629;32;20464;-55
2021/11/08 09:55:33;;;;;;;46.87;19.10;;;;;;;;;;4431270;32;20243;-56
2021/11/08 09:57:59;;;;;;;29.07;18.67;;;;;;;;;;4430961;32;20528;-57
2021/11/08 10:00:47;;;;;;;36.13;19.60;;;;;;;;;;4432121;32;20356;-57
2021/11/08 10:03:18;;;;;;;39.17;19.67;;;;;;;;;;4431882;32;20216;-56
2021/11/08 10:05:49;;;;;;;30.80;17.80;;;;;;;;;;4428539;32;20240;-55
2021/11/08 10:08:16;;;;;;;33.57;18.20;;;;;;;;;;4432163;32;20310;-57
2021/11/08 10:10:42;;;;;;;29.13;18.20;;;;;;;;;;4430180;32;20201;-56
2021/11/08 10:13:13;;;;;;;33.97;18.57;;;;;;;;;;4431521;32;20208;-56
2021/11/08 10:15:46;;;;;;;36.17;17.43;;;;;;;;;;4432032;32;20343;-57
2021/11/08 10:18:13;;;;;;;33.27;16.70;;;;;;;;;;4432330;32;20209;-55
2021/11/08 10:20:43;;;;;;;29.00;16.30;;;;;;;;;;4432387;32;20330;-56
2021/11/08 10:23:12;;;;;;;35.73;17.43;;;;;;;;;;4433343;32;20289;-55
2021/11/08 10:25:39;;;;;;;29.67;15.30;;;;;;;;;;4431461;32;20219;-57
2021/11/08 10:28:11;;;;;;;32.47;16.70;;;;;;;;;;4435524;32;20724;-56
2021/11/08 10:30:40;;;;;;;33.63;17.10;;;;;;;;;;4435493;32;20205;-56
2021/11/08 10:33:13;;;;;;;29.83;16.73;;;;;;;;;;4435108;32;20746;-56
2021/11/08 10:35:44;;;;;;;28.23;16.07;;;;;;;;;;4435103;32;20234;-56
2021/11/08 10:38:16;;;;;;;39.73;15.50;;;;;;;;;;4434792;32;20278;-55
2021/11/08 10:40:57;;;;;;;29.13;15.27;;;;;;;;;;4434286;32;20645;-55
2021/11/08 10:43:25;;;;;;;36.33;14.93;;;;;;;;;;4433994;32;20588;-56
2021/11/08 10:45:57;;;;;;;27.45;14.50;;;;;;;;;;4434166;32;20275;-55
2021/11/08 10:48:30;;;;;;;30.65;14.43;;;;;;;;;;4432686;32;20242;-55
2021/11/08 10:50:57;;;;;;;25.88;14.68;;;;;;;;;;4431795;32;20540;-55
2021/11/08 10:53:23;;;;;;;29.67;14.70;;;;;;;;;;4432977;32;20261;-56
2021/11/08 10:55:54;;;;;;;29.23;13.43;;;;;;;;;;4433398;32;20288;-56
2021/11/08 10:58:21;;;;;;;33.35;15.15;;;;;;;;;;4435215;32;20794;-56
2021/11/08 11:00:56;;;;;;;40.92;15.82;;;;;;;;;;4434790;32;20299;-56
2021/11/08 11:03:23;;;;;;;34.17;14.93;;;;;;;;;;4432565;32;20957;-57
2021/11/08 11:06:01;;;;;;;29.10;16.35;;;;;;;;;;4433879;32;20281;-56
2021/11/08 11:08:28;;;;;;;36.03;15.48;;;;;;;;;;4435419;32;20212;-56
2021/11/08 11:10:56;;;;;;;30.45;15.38;;;;;;;;;;4435566;32;20326;-56
2021/11/08 11:13:24;;;;;;;25.17;15.13;;;;;;;;;;4435503;32;20577;-56
2021/11/08 11:15:50;;;;;;;21.58;11.98;;;;;;;;;;4435363;32;20213;-55
2021/11/08 11:18:17;;;;;;;29.35;13.05;;;;;;;;;;4434677;32;20659;-56
2021/11/08 11:20:45;;;;;;;34.42;13.75;;;;;;;;;;4435121;32;20579;-55
2021/11/08 11:23:21;;;;;;;29.05;12.02;;;;;;;;;;4435091;32;20204;-55
2021/11/08 11:25:52;;;;;;;28.67;11.55;;;;;;;;;;4431179;32;20309;-57
2021/11/08 11:28:31;;;;;;;30.70;11.35;;;;;;;;;;4435028;32;20205;-56
2021/11/08 11:30:57;;;;;;;28.08;11.45;;;;;;;;;;4434957;32;20224;-55
2021/11/08 11:33:24;;;;;;;19.27;10.38;;;;;;;;;;4434797;32;20401;-56
2021/11/08 11:35:55;;;;;;;24.20;10.68;;;;;;;;;;4434328;32;20273;-56
2021/11/08 11:38:34;;;;;;;20.60;9.45;;;;;;;;;;4434812;32;20190;-55
2021/11/08 11:41:12;;;;;;;31.77;12.05;;;;;;;;;;4434665;32;20258;-55
2021/11/08 11:43:48;;;;;;;26.48;11.90;;;;;;;;;;4434493;32;20177;-55
2021/11/08 11:46:23;;;;;;;22.17;11.88;;;;;;;;;;4435001;32;20372;-55
2021/11/08 11:48:51;;;;;;;21.95;10.77;;;;;;;;;;4419657;32;20270;-56
2021/11/08 11:51:22;;;;;;;21.75;11.02;;;;;;;;;;4428187;32;20272;-56
2021/11/08 11:53:48;;;;;;;30.37;15.27;;;;;;;;;;4434744;32;20246;-55
2021/11/08 11:56:16;;;;;;;34.60;17.02;;;;;;;;;;4434568;32;20374;-57
2021/11/08 11:58:43;;;;;;;85.60;46.17;;;;;;;;;;4434436;32;20205;-57
2021/11/08 12:01:11;;;;;;;58.35;32.80;;;;;;;;;;4433701;32;20237;-56
2021/11/08 12:03:37;;;;;;;46.55;27.65;;;;;;;;;;4434751;32;20201;-56
2021/11/08 12:06:04;;;;;;;44.10;25.88;;;;;;;;;;4434041;32;20313;-57
2021/11/08 12:08:37;;;;;;;32.00;16.87;;;;;;;;;;4433112;32;20528;-57
2021/11/08 12:11:04;;;;;;;34.10;14.60;;;;;;;;;;4434185;32;20667;-56
2021/11/08 12:13:30;;;;;;;28.77;14.38;;;;;;;;;;4434316;32;20201;-56
2021/11/08 12:16:11;;;;;;;22.73;11.65;;;;;;;;;;4433981;32;20333;-55
2021/11/08 12:18:37;;;;;;;40.22;13.98;;;;;;;;;;4434387;32;20231;-57
2021/11/08 12:21:03;;;;;;;19.85;9.63;;;;;;;;;;4432687;32;20253;-56
2021/11/08 12:23:30;;;;;;;22.77;10.80;;;;;;;;;;4433899;32;20284;-57
2021/11/08 12:25:58;;;;;;;23.75;10.85;;;;;;;;;;4433506;32;20648;-56
2021/11/08 12:28:29;;;;;;;30.92;10.27;;;;;;;;;;4434237;32;20327;-56
2021/11/08 12:30:59;;;;;;;21.98;11.65;;;;;;;;;;4433986;32;20216;-55
2021/11/08 12:33:38;;;;;;;34.10;12.15;;;;;;;;;;4433121;32;20762;-56
2021/11/08 12:36:06;;;;;;;24.73;11.23;;;;;;;;;;4434079;32;20347;-55
2021/11/08 12:38:37;;;;;;;28.45;11.00;;;;;;;;;;4434125;32;20189;-56
2021/11/08 12:41:18;;;;;;;25.52;12.82;;;;;;;;;;4433870;32;20271;-56
2021/11/08 12:43:58;;;;;;;25.02;12.35;;;;;;;;;;4434060;32;20713;-55
2021/11/08 12:46:33;;;;;;;30.92;12.13;;;;;;;;;;4433340;32;20497;-55
2021/11/08 12:49:15;;;;;;;25.37;11.65;;;;;;;;;;4434060;32;20588;-56
2021/11/08 12:51:53;;;;;;;23.70;11.30;;;;;;;;;;4434185;32;20277;-56
2021/11/08 12:54:19;;;;;;;30.40;9.88;;;;;;;;;;4434117;32;20216;-56
2021/11/08 12:56:46;;;;;;;24.40;10.82;;;;;;;;;;4434154;32;20649;-56
2021/11/08 12:59:24;;;;;;;28.80;13.55;;;;;;;;;;4433776;32;20235;-56
2021/11/08 13:02:08;;;;;;;39.17;18.02;;;;;;;;;;4433637;32;20399;-56
2021/11/08 13:04:46;;;;;;;50.47;30.60;;;;;;;;;;4429763;32;20558;-56
2021/11/08 13:07:13;;;;;;;28.02;14.45;;;;;;;;;;4418918;32;20221;-56
2021/11/08 13:09:49;;;;;;;40.58;17.80;;;;;;;;;;4418662;32;20213;-56
2021/11/08 13:12:19;;;;;;;35.95;17.55;;;;;;;;;;4418501;32;20398;-57
2021/11/08 13:14:48;;;;;;;30.62;17.45;;;;;;;;;;4419006;32;20240;-55
2021/11/08 13:17:19;;;;;;;37.80;19.40;;;;;;;;;;4433150;32;20323;-56
2021/11/08 13:19:48;;;;;;;41.97;20.42;;;;;;;;;;4433905;32;20567;-56
2021/11/08 13:22:23;;;;;;;34.58;19.15;;;;;;;;;;4433762;32;20543;-55
2021/11/08 13:25:11;;;;;;;34.47;19.77;;;;;;;;;;4432187;32;20204;-56
2021/11/08 13:27:43;;;;;;;81.28;38.20;;;;;;;;;;4432409;32;20225;-56
2021/11/08 13:30:10;;;;;;;52.00;23.98;;;;;;;;;;4433644;32;20242;-55
2021/11/08 13:32:36;;;;;;;44.25;19.95;;;;;;;;;;4432140;32;20315;-56
2021/11/08 13:35:09;;;;;;;49.90;20.23;;;;;;;;;;4433659;32;20326;-55
2021/11/08 13:37:39;;;;;;;48.63;22.75;;;;;;;;;;4433446;32;20295;-56
2021/11/08 13:40:22;;;;;;;34.97;18.80;;;;;;;;;;4433465;32;20437;-57
2021/11/08 13:42:51;;;;;;;41.63;19.80;;;;;;;;;;4433633;32;20665;-56
2021/11/08 13:45:18;;;;;;;52.70;23.00;;;;;;;;;;4433425;32;20283;-56
2021/11/08 13:47:46;;;;;;;80.00;36.03;;;;;;;;;;4433278;32;20221;-56
2021/11/08 13:50:15;;;;;;;44.60;21.98;;;;;;;;;;4433647;32;20225;-56
2021/11/08 13:52:42;;;;;;;32.17;14.23;;;;;;;;;;4433561;32;20299;-56
2021/11/08 13:55:10;;;;;;;31.25;15.25;;;;;;;;;;4432521;32;20903;-57
2021/11/08 13:57:40;;;;;;;37.15;16.65;;;;;;;;;;4433580;32;20342;-57
2021/11/08 14:00:11;;;;;;;44.00;21.60;;;;;;;;;;4436617;32;20676;-55
2021/11/08 14:02:38;;;;;;;81.57;32.10;;;;;;;;;;4436557;32;20252;-56
2021/11/08 14:05:05;;;;;;;54.65;22.73;;;;;;;;;;4435515;32;20280;-56
2021/11/08 14:07:33;;;;;;;54.90;27.30;;;;;;;;;;4420948;32;20669;-56
2021/11/08 14:09:58;;;;;;;38.30;18.33;;;;;;;;;;4421167;32;20250;-56
2021/11/08 14:12:30;;;;;;;34.05;16.23;;;;;;;;;;4420886;32;20264;-56
2021/11/08 14:14:57;;;;;;;39.65;18.65;;;;;;;;;;4421117;32;20261;-54
2021/11/08 14:17:28;;;;;;;140.20;67.32;;;;;;;;;;4436242;32;20286;-56
2021/11/08 14:19:56;;;;;;;49.55;27.55;;;;;;;;;;4436299;32;20237;-55
2021/11/08 14:22:27;;;;;;;85.55;38.00;;;;;;;;;;4436211;32;20272;-55
2021/11/08 14:24:56;;;;;;;388.77;190.05;;;;;;;;;;4435902;32;20322;-56
2021/11/08 14:27:25;;;;;;;204.18;96.45;;;;;;;;;;4436436;32;20225;-55
2021/11/08 14:29:51;;;;;;;68.97;34.08;;;;;;;;;;4436166;32;20200;-55
2021/11/08 14:32:24;;;;;;;41.50;22.25;;;;;;;;;;4435830;32;20296;-56
2021/11/08 14:35:02;;;;;;;62.92;25.20;;;;;;;;;;4436394;32;20242;-55
2021/11/08 14:38:01;;;;;;;62.45;25.73;;;;;;;;;;4420570;32;20252;-56
2021/11/08 14:40:37;;;;;;;58.33;23.62;;;;;;;;;;4431058;32;20228;-56
2021/11/08 14:43:16;;;;;;;56.75;27.30;;;;;;;;;;4434600;32;20336;-55
2021/11/08 14:45:59;;;;;;;70.12;35.58;;;;;;;;;;4435658;32;20623;-55
2021/11/08 14:48:26;;;;;;;57.00;27.42;;;;;;;;;;4435856;32;20197;-55
2021/11/08 14:51:16;;;;;;;57.42;28.35;;;;;;;;;;4436131;32;20554;-55
2021/11/08 14:54:02;;;;;;;57.65;29.05;;;;;;;;;;4435850;32;20185;-56
2021/11/08 14:56:31;;;;;;;55.55;28.70;;;;;;;;;;4435960;32;20247;-55
2021/11/08 14:59:05;;;;;;;47.95;25.65;;;;;;;;;;4435482;32;20197;-56
2021/11/08 15:01:32;;;;;;;47.70;23.73;;;;;;;;;;4434884;32;20289;-55
2021/11/08 15:04:19;;;;;;;47.42;20.40;;;;;;;;;;4435929;32;20185;-55
2021/11/08 15:06:54;;;;;;;45.95;20.88;;;;;;;;;;4423974;32;20241;-56
2021/11/08 15:09:20;;;;;;;50.75;22.42;;;;;;;;;;4419521;32;20628;-55
2021/11/08 15:11:45;;;;;;;45.90;23.27;;;;;;;;;;4420061;32;20260;-55
2021/11/08 15:14:17;;;;;;;50.55;28.38;;;;;;;;;;4420004;32;20566;-55
2021/11/08 15:16:50;;;;;;;62.13;30.00;;;;;;;;;;4431242;32;20518;-55
2021/11/08 15:19:17;;;;;;;58.40;28.90;;;;;;;;;;4435046;32;20329;-56
2021/11/08 15:21:50;;;;;;;62.03;33.15;;;;;;;;;;4435249;32;20213;-57
2021/11/08 15:24:16;;;;;;;73.53;37.17;;;;;;;;;;4435137;32;20350;-55
2021/11/08 15:26:48;;;;;;;70.32;37.55;;;;;;;;;;4434084;32;20278;-56
2021/11/08 15:29:21;;;;;;;79.13;38.27;;;;;;;;;;4433514;32;20286;-56
2021/11/08 15:31:47;;;;;;;66.73;36.20;;;;;;;;;;4434505;32;20228;-56
2021/11/08 15:34:14;;;;;;;75.07;37.13;;;;;;;;;;4433960;32;20643;-56
2021/11/08 15:36:54;;;;;;;66.85;33.10;;;;;;;;;;4434136;32;20262;-56
2021/11/08 15:39:28;;;;;;;70.07;32.40;;;;;;;;;;4434303;32;20214;-56
2021/11/08 15:42:02;;;;;;;66.20;31.15;;;;;;;;;;4434462;32;20303;-58
2021/11/08 15:44:29;;;;;;;76.43;39.67;;;;;;;;;;4434206;32;20213;-55
2021/11/08 15:46:55;;;;;;;87.53;37.03;;;;;;;;;;4434220;32;20792;-56
2021/11/08 15:49:21;;;;;;;68.87;33.40;;;;;;;;;;4434359;32;20288;-58
2021/11/08 15:51:47;;;;;;;68.90;35.58;;;;;;;;;;4434522;32;20213;-57
2021/11/08 15:54:18;;;;;;;80.38;41.80;;;;;;;;;;4434030;32;20295;-56
2021/11/08 15:56:45;;;;;;;88.22;40.28;;;;;;;;;;4433297;32;20652;-55
2021/11/08 15:59:10;;;;;;;84.45;42.97;;;;;;;;;;4434142;32;20229;-57
2021/11/08 16:01:42;;;;;;;86.87;48.15;;;;;;;;;;4424605;32;20233;-56
2021/11/08 16:04:07;;;;;;;75.10;41.70;;;;;;;;;;4418243;32;20263;-54
2021/11/08 16:06:33;;;;;;;88.15;43.25;;;;;;;;;;4428932;32;20244;-55
2021/11/08 16:08:59;;;;;;;80.82;38.78;;;;;;;;;;4432266;32;20348;-55
2021/11/08 16:11:25;;;;;;;78.75;40.97;;;;;;;;;;4432261;32;20689;-56